Terminal Aerodrome Forecast
Issued by NWS

Home | Current Version | Previous Version | Text Only | Print | Product List | Glossary On
Versions: 1 2 3 4 5 6 7 8 9 10 11 12 13 14 15 16 17 18 19 20 21 22 23 24 25 26 27 28 29 30
000
FTUS41 KALY 280043 AAB
TAFPSF
TAF AMD
KPSF 280043Z 2801/2824 00000KT P6SM VCSH BKN008 BKN040 OVC110
     FM280400 VRB04KT 3SM BR BKN020
     FM281000 VRB03KT 3SM BR SCT007 BKN015
     FM281400 23011KT P6SM SCT015 BKN040
     FM281800 26010G20KT P6SM VCSH OVC045=

USA.gov is the U.S. government's official web portal to all federal, state and local government web resources and services.